Time;durP1;ratioP1;P1;durP2;ratioP2;P2;SDS_P1;SDS_P2;PMS_P1;PMS_P2;Temp;Humidity;BMP_temperature;BMP_pressure;BME280_temperature;BME280_humidity;BME280_pressure;Samples;Min_cycle;Max_cycle;Signal;HPM_P1;HPM_P2
2024/01/17 00:00:18;;;;;;;11.77;6.97;;;;;;;;;;687792;28;1377;-68
2024/01/17 00:00:38;;;;;;;13.38;7.20;;;;;;;;;;687854;28;873;-68
2024/01/17 00:00:59;;;;;;;12.07;7.30;;;;;;;;;;686029;28;4446;-67
2024/01/17 00:01:19;;;;;;;12.65;7.88;;;;;;;;;;687314;28;793;-68
2024/01/17 00:01:39;;;;;;;13.03;7.57;;;;;;;;;;687377;28;897;-68
2024/01/17 00:01:59;;;;;;;11.93;7.80;;;;;;;;;;686605;28;1732;-68
2024/01/17 00:02:20;;;;;;;12.40;7.37;;;;;;;;;;684967;28;916;-68
2024/01/17 00:02:40;;;;;;;11.40;7.30;;;;;;;;;;682297;29;1568;-68
2024/01/17 00:03:00;;;;;;;12.33;7.30;;;;;;;;;;681285;28;1702;-68
2024/01/17 00:03:20;;;;;;;11.65;7.18;;;;;;;;;;682040;28;941;-69
2024/01/17 00:03:41;;;;;;;10.70;7.03;;;;;;;;;;687432;28;1204;-67
2024/01/17 00:04:01;;;;;;;12.23;7.80;;;;;;;;;;685708;28;4597;-67
2024/01/17 00:04:21;;;;;;;11.60;7.05;;;;;;;;;;690158;28;821;-68
2024/01/17 00:04:46;;;;;;;10.87;6.80;;;;;;;;;;693309;28;880;-68
2024/01/17 00:05:09;;;;;;;12.18;7.30;;;;;;;;;;693354;28;812;-68
2024/01/17 00:05:30;;;;;;;11.70;6.85;;;;;;;;;;690267;28;1181;-69
2024/01/17 00:05:50;;;;;;;11.70;6.95;;;;;;;;;;686441;28;1833;-68
2024/01/17 00:06:11;;;;;;;12.17;6.97;;;;;;;;;;688165;28;897;-68
2024/01/17 00:06:31;;;;;;;13.40;7.78;;;;;;;;;;686126;28;979;-67
2024/01/17 00:06:52;;;;;;;15.80;7.40;;;;;;;;;;685884;28;2344;-67
2024/01/17 00:07:13;;;;;;;10.50;7.07;;;;;;;;;;686460;28;4650;-68
2024/01/17 00:07:34;;;;;;;11.25;6.90;;;;;;;;;;687704;28;1140;-67
2024/01/17 00:07:56;;;;;;;11.32;7.13;;;;;;;;;;685937;28;3222;-68
2024/01/17 00:08:17;;;;;;;11.32;7.05;;;;;;;;;;687293;28;1188;-68
2024/01/17 00:08:38;;;;;;;11.30;6.97;;;;;;;;;;687055;28;1454;-68
2024/01/17 00:08:59;;;;;;;11.27;6.93;;;;;;;;;;686125;28;1544;-69
2024/01/17 00:09:19;;;;;;;12.30;7.20;;;;;;;;;;684750;28;1367;-68
2024/01/17 00:09:40;;;;;;;12.73;6.80;;;;;;;;;;684996;28;774;-69
2024/01/17 00:10:00;;;;;;;12.38;6.85;;;;;;;;;;685167;28;4591;-68
2024/01/17 00:10:20;;;;;;;9.63;6.60;;;;;;;;;;687757;28;1321;-68
2024/01/17 00:10:41;;;;;;;10.83;7.00;;;;;;;;;;684893;28;1183;-69
2024/01/17 00:11:01;;;;;;;13.00;7.40;;;;;;;;;;685901;28;1845;-68
2024/01/17 00:11:21;;;;;;;12.63;6.90;;;;;;;;;;687449;28;948;-68
2024/01/17 00:11:45;;;;;;;9.95;6.60;;;;;;;;;;687524;28;1039;-68
2024/01/17 00:12:05;;;;;;;10.30;6.80;;;;;;;;;;687350;28;1200;-67
2024/01/17 00:12:25;;;;;;;11.95;7.05;;;;;;;;;;688226;28;885;-68
2024/01/17 00:12:46;;;;;;;12.37;6.90;;;;;;;;;;687988;28;1754;-68
2024/01/17 00:13:06;;;;;;;10.50;6.60;;;;;;;;;;685928;28;4411;-68
2024/01/17 00:13:26;;;;;;;11.50;7.00;;;;;;;;;;687986;28;857;-69
2024/01/17 00:13:47;;;;;;;11.15;6.78;;;;;;;;;;686204;28;1480;-69
2024/01/17 00:14:08;;;;;;;11.87;6.90;;;;;;;;;;687287;28;798;-68
2024/01/17 00:14:28;;;;;;;11.38;7.28;;;;;;;;;;687656;28;1354;-69
2024/01/17 00:14:49;;;;;;;12.47;7.00;;;;;;;;;;686204;28;1560;-69
2024/01/17 00:15:09;;;;;;;12.55;6.63;;;;;;;;;;687362;28;1246;-68
2024/01/17 00:15:30;;;;;;;12.03;6.93;;;;;;;;;;687480;28;1311;-68
2024/01/17 00:15:50;;;;;;;10.80;7.00;;;;;;;;;;686273;28;2287;-68
2024/01/17 00:16:11;;;;;;;11.85;7.10;;;;;;;;;;687016;28;4396;-69
2024/01/17 00:16:31;;;;;;;12.00;7.27;;;;;;;;;;687891;28;906;-69
2024/01/17 00:16:51;;;;;;;12.20;6.70;;;;;;;;;;686106;28;1525;-68
2024/01/17 00:17:12;;;;;;;11.80;6.95;;;;;;;;;;687738;28;984;-68
2024/01/17 00:17:32;;;;;;;10.70;6.70;;;;;;;;;;685139;28;913;-69
2024/01/17 00:17:52;;;;;;;12.43;6.85;;;;;;;;;;683253;28;1389;-68
2024/01/17 00:18:13;;;;;;;11.20;6.90;;;;;;;;;;683009;28;885;-68
2024/01/17 00:18:33;;;;;;;11.20;6.87;;;;;;;;;;684598;28;1216;-68
2024/01/17 00:18:55;;;;;;;11.57;6.70;;;;;;;;;;686039;28;1788;-68
2024/01/17 00:19:15;;;;;;;10.70;6.43;;;;;;;;;;686978;28;4435;-69
2024/01/17 00:19:35;;;;;;;13.17;7.10;;;;;;;;;;689966;28;901;-68
2024/01/17 00:19:55;;;;;;;9.80;6.67;;;;;;;;;;686301;28;2278;-67
2024/01/17 00:20:16;;;;;;;10.50;6.53;;;;;;;;;;687673;28;861;-68
2024/01/17 00:20:36;;;;;;;12.83;6.57;;;;;;;;;;686877;28;1225;-70
2024/01/17 00:20:56;;;;;;;10.37;6.50;;;;;;;;;;686353;28;1699;-68
2024/01/17 00:21:18;;;;;;;9.88;6.50;;;;;;;;;;687786;28;900;-68
2024/01/17 00:21:38;;;;;;;10.95;6.13;;;;;;;;;;688002;28;1361;-69
2024/01/17 00:21:58;;;;;;;11.53;6.43;;;;;;;;;;686204;28;4351;-67
2024/01/17 00:22:18;;;;;;;11.13;6.43;;;;;;;;;;687186;28;1107;-68
2024/01/17 00:22:39;;;;;;;12.00;6.80;;;;;;;;;;687486;28;1198;-68
2024/01/17 00:22:59;;;;;;;10.60;6.85;;;;;;;;;;686715;28;1474;-69
2024/01/17 00:23:19;;;;;;;10.70;7.27;;;;;;;;;;687183;28;984;-68
2024/01/17 00:23:39;;;;;;;10.73;6.63;;;;;;;;;;686112;28;3804;-68
2024/01/17 00:24:00;;;;;;;10.98;6.40;;;;;;;;;;686486;28;1429;-69
2024/01/17 00:24:20;;;;;;;10.50;7.20;;;;;;;;;;687519;28;1257;-68
2024/01/17 00:24:40;;;;;;;11.20;6.90;;;;;;;;;;687882;28;1379;-71
2024/01/17 00:25:01;;;;;;;10.27;6.75;;;;;;;;;;685870;28;4370;-69
2024/01/17 00:25:21;;;;;;;10.67;6.50;;;;;;;;;;687349;28;1207;-69
2024/01/17 00:25:41;;;;;;;11.00;6.57;;;;;;;;;;687900;28;1043;-69
2024/01/17 00:26:01;;;;;;;10.98;6.38;;;;;;;;;;686967;28;1800;-68
2024/01/17 00:26:22;;;;;;;11.10;6.53;;;;;;;;;;687009;28;865;-68
2024/01/17 00:26:42;;;;;;;11.17;6.73;;;;;;;;;;687799;28;801;-68
2024/01/17 00:27:04;;;;;;;11.07;6.97;;;;;;;;;;686598;28;1914;-69
2024/01/17 00:27:26;;;;;;;9.63;6.05;;;;;;;;;;689017;28;979;-69
2024/01/17 00:27:49;;;;;;;9.90;6.35;;;;;;;;;;686265;28;2235;-68
2024/01/17 00:28:09;;;;;;;10.45;6.47;;;;;;;;;;685963;28;4332;-69
2024/01/17 00:28:29;;;;;;;10.17;6.60;;;;;;;;;;684485;28;920;-69
2024/01/17 00:28:50;;;;;;;10.60;7.20;;;;;;;;;;683914;28;1793;-68
2024/01/17 00:29:10;;;;;;;10.98;6.75;;;;;;;;;;690039;28;1075;-68
2024/01/17 00:29:31;;;;;;;10.87;6.47;;;;;;;;;;690166;28;994;-69
2024/01/17 00:29:57;;;;;;;12.52;7.03;;;;;;;;;;688749;28;971;-69
2024/01/17 00:30:17;;;;;;;11.80;6.40;;;;;;;;;;687817;28;1102;-69
2024/01/17 00:30:37;;;;;;;12.70;7.10;;;;;;;;;;687072;28;896;-68
2024/01/17 00:30:58;;;;;;;11.03;6.40;;;;;;;;;;685637;28;1053;-68
2024/01/17 00:31:18;;;;;;;11.20;6.30;;;;;;;;;;681920;29;4520;-68
2024/01/17 00:31:38;;;;;;;11.43;6.53;;;;;;;;;;680972;29;874;-69
2024/01/17 00:31:58;;;;;;;10.83;6.60;;;;;;;;;;680088;29;1810;-69
2024/01/17 00:32:19;;;;;;;11.27;6.40;;;;;;;;;;684372;28;1351;-69
2024/01/17 00:32:39;;;;;;;11.15;6.80;;;;;;;;;;683788;28;1646;-69
2024/01/17 00:32:59;;;;;;;11.00;6.40;;;;;;;;;;683831;28;1784;-68
2024/01/17 00:33:19;;;;;;;12.40;6.57;;;;;;;;;;687540;28;1057;-67
2024/01/17 00:33:40;;;;;;;10.13;6.40;;;;;;;;;;687717;28;999;-68
2024/01/17 00:34:00;;;;;;;11.33;6.93;;;;;;;;;;686479;28;4319;-69
2024/01/17 00:34:20;;;;;;;11.35;6.65;;;;;;;;;;689375;28;1295;-69
2024/01/17 00:34:41;;;;;;;11.10;6.47;;;;;;;;;;686718;28;841;-69
2024/01/17 00:35:02;;;;;;;11.35;6.40;;;;;;;;;;688912;28;1727;-69
2024/01/17 00:35:25;;;;;;;11.82;6.38;;;;;;;;;;690523;28;914;-69
2024/01/17 00:35:45;;;;;;;11.90;6.72;;;;;;;;;;688860;28;974;-68
2024/01/17 00:36:05;;;;;;;11.03;6.77;;;;;;;;;;689153;28;1003;-69
2024/01/17 00:36:26;;;;;;;9.97;6.40;;;;;;;;;;690616;28;840;-69
2024/01/17 00:36:46;;;;;;;10.30;6.57;;;;;;;;;;688599;28;1594;-69
2024/01/17 00:37:07;;;;;;;9.97;6.50;;;;;;;;;;686652;28;4486;-70
2024/01/17 00:37:27;;;;;;;11.23;6.65;;;;;;;;;;683899;28;1134;-69
2024/01/17 00:37:47;;;;;;;12.23;6.80;;;;;;;;;;683205;28;2291;-68
2024/01/17 00:38:07;;;;;;;11.15;6.70;;;;;;;;;;683628;28;786;-70
2024/01/17 00:38:28;;;;;;;9.73;6.23;;;;;;;;;;684956;28;849;-69
2024/01/17 00:38:48;;;;;;;10.07;6.30;;;;;;;;;;682783;28;908;-69
2024/01/17 00:39:08;;;;;;;11.93;6.57;;;;;;;;;;687020;28;996;-69
2024/01/17 00:39:29;;;;;;;13.63;6.97;;;;;;;;;;687812;28;1371;-69
2024/01/17 00:39:50;;;;;;;12.87;7.00;;;;;;;;;;686013;28;1863;-68
2024/01/17 00:40:10;;;;;;;12.27;7.00;;;;;;;;;;686544;28;4527;-69
2024/01/17 00:40:30;;;;;;;11.90;6.43;;;;;;;;;;687651;28;857;-69
2024/01/17 00:40:51;;;;;;;13.10;6.50;;;;;;;;;;686577;28;1832;-69
2024/01/17 00:41:11;;;;;;;11.90;6.63;;;;;;;;;;686889;28;1309;-69
2024/01/17 00:41:31;;;;;;;11.80;6.93;;;;;;;;;;687632;28;908;-70
2024/01/17 00:41:52;;;;;;;12.30;6.80;;;;;;;;;;686480;28;2048;-69
2024/01/17 00:42:12;;;;;;;10.47;6.67;;;;;;;;;;687231;28;6216;-70
2024/01/17 00:42:32;;;;;;;10.70;6.77;;;;;;;;;;687816;28;812;-69
2024/01/17 00:42:52;;;;;;;12.45;6.95;;;;;;;;;;686157;28;1573;-70
2024/01/17 00:43:13;;;;;;;13.03;7.33;;;;;;;;;;684378;28;4678;-70
2024/01/17 00:43:33;;;;;;;12.40;7.00;;;;;;;;;;684962;28;896;-69
2024/01/17 00:43:53;;;;;;;11.88;6.95;;;;;;;;;;683822;28;1123;-69
2024/01/17 00:44:17;;;;;;;11.87;7.03;;;;;;;;;;687359;28;853;-69
2024/01/17 00:44:39;;;;;;;11.60;6.85;;;;;;;;;;684032;28;1328;-69
2024/01/17 00:44:59;;;;;;;11.95;7.30;;;;;;;;;;683247;28;1729;-69
2024/01/17 00:45:19;;;;;;;12.93;7.27;;;;;;;;;;684222;28;920;-70
2024/01/17 00:45:40;;;;;;;11.98;6.82;;;;;;;;;;685056;28;929;-69
2024/01/17 00:46:00;;;;;;;11.43;6.83;;;;;;;;;;683208;28;4689;-69
2024/01/17 00:46:20;;;;;;;11.90;6.73;;;;;;;;;;683328;28;1543;-69
2024/01/17 00:46:41;;;;;;;12.02;6.75;;;;;;;;;;687813;28;1385;-69
2024/01/17 00:47:01;;;;;;;11.67;7.10;;;;;;;;;;686367;28;2361;-69
2024/01/17 00:47:21;;;;;;;10.57;7.00;;;;;;;;;;686747;28;848;-69
2024/01/17 00:47:42;;;;;;;10.48;6.57;;;;;;;;;;687794;28;844;-70
2024/01/17 00:48:03;;;;;;;10.95;6.90;;;;;;;;;;686199;28;1454;-70
2024/01/17 00:48:23;;;;;;;10.60;6.60;;;;;;;;;;687309;28;964;-70
2024/01/17 00:48:43;;;;;;;11.53;6.70;;;;;;;;;;687082;28;857;-69
2024/01/17 00:49:04;;;;;;;12.43;7.00;;;;;;;;;;683816;28;4455;-69
2024/01/17 00:49:24;;;;;;;10.45;6.80;;;;;;;;;;684764;28;884;-68
2024/01/17 00:49:44;;;;;;;10.50;6.53;;;;;;;;;;684764;28;789;-68
2024/01/17 00:50:05;;;;;;;11.40;6.80;;;;;;;;;;682945;28;1744;-69
2024/01/17 00:50:26;;;;;;;13.30;6.85;;;;;;;;;;684928;28;1017;-69
2024/01/17 00:50:46;;;;;;;12.73;6.70;;;;;;;;;;683876;28;1560;-69
2024/01/17 00:51:06;;;;;;;11.07;6.30;;;;;;;;;;685231;28;865;-69
2024/01/17 00:51:27;;;;;;;12.55;6.93;;;;;;;;;;684745;28;841;-69
2024/01/17 00:51:47;;;;;;;12.20;6.60;;;;;;;;;;683720;28;1783;-69
2024/01/17 00:52:08;;;;;;;11.30;6.70;;;;;;;;;;684329;28;4300;-70
2024/01/17 00:52:29;;;;;;;11.63;6.87;;;;;;;;;;684053;28;1003;-68
2024/01/17 00:52:49;;;;;;;13.18;7.18;;;;;;;;;;683466;28;2010;-69
2024/01/17 00:53:10;;;;;;;12.90;6.97;;;;;;;;;;685206;28;869;-70
2024/01/17 00:53:30;;;;;;;11.32;6.55;;;;;;;;;;684407;28;1270;-69
2024/01/17 00:53:53;;;;;;;12.43;6.57;;;;;;;;;;683021;28;3713;-69
2024/01/17 00:54:14;;;;;;;12.15;6.90;;;;;;;;;;684788;28;1992;-69
2024/01/17 00:54:34;;;;;;;12.97;7.07;;;;;;;;;;685069;28;790;-69
2024/01/17 00:54:54;;;;;;;12.73;7.27;;;;;;;;;;680495;29;1722;-69
2024/01/17 00:55:14;;;;;;;11.15;6.50;;;;;;;;;;681601;29;4354;-69
2024/01/17 00:55:35;;;;;;;12.10;6.87;;;;;;;;;;681903;29;889;-69
2024/01/17 00:55:55;;;;;;;12.00;6.80;;;;;;;;;;680779;29;1867;-69
2024/01/17 00:56:16;;;;;;;12.35;6.93;;;;;;;;;;685021;28;790;-68
2024/01/17 00:56:37;;;;;;;13.13;7.10;;;;;;;;;;682432;28;1192;-69
2024/01/17 00:56:58;;;;;;;12.98;6.72;;;;;;;;;;683342;28;1769;-69
2024/01/17 00:57:18;;;;;;;10.18;6.50;;;;;;;;;;684915;28;956;-69
2024/01/17 00:57:39;;;;;;;11.37;6.67;;;;;;;;;;684189;28;850;-69
2024/01/17 00:57:59;;;;;;;12.52;7.00;;;;;;;;;;682586;28;4296;-69
2024/01/17 00:58:19;;;;;;;11.57;6.43;;;;;;;;;;687566;28;918;-69
2024/01/17 00:58:39;;;;;;;12.67;6.57;;;;;;;;;;689878;28;1340;-70
2024/01/17 00:59:00;;;;;;;11.90;6.90;;;;;;;;;;688673;28;1141;-69
2024/01/17 00:59:20;;;;;;;11.20;6.80;;;;;;;;;;687934;28;836;-70
2024/01/17 00:59:40;;;;;;;13.03;6.77;;;;;;;;;;687269;28;1405;-68
2024/01/17 01:00:00;;;;;;;12.23;6.68;;;;;;;;;;685139;28;1801;-68
2024/01/17 01:00:21;;;;;;;12.87;6.90;;;;;;;;;;684419;28;1274;-69
2024/01/17 01:00:41;;;;;;;12.17;7.00;;;;;;;;;;682323;29;870;-70
2024/01/17 01:01:01;;;;;;;10.98;6.72;;;;;;;;;;680244;28;4635;-69
2024/01/17 01:01:23;;;;;;;11.83;6.50;;;;;;;;;;684585;28;892;-69
2024/01/17 01:01:43;;;;;;;12.60;6.80;;;;;;;;;;685030;28;929;-69
2024/01/17 01:02:04;;;;;;;11.03;6.80;;;;;;;;;;683053;28;1772;-69
2024/01/17 01:02:24;;;;;;;10.95;6.53;;;;;;;;;;684052;28;861;-69
2024/01/17 01:02:44;;;;;;;11.83;6.53;;;;;;;;;;684259;28;802;-68
2024/01/17 01:03:05;;;;;;;11.73;6.50;;;;;;;;;;680756;29;1729;-69
2024/01/17 01:03:25;;;;;;;10.37;6.53;;;;;;;;;;682247;28;869;-70
2024/01/17 01:03:45;;;;;;;11.00;6.50;;;;;;;;;;684776;28;997;-69
2024/01/17 01:04:08;;;;;;;11.33;6.63;;;;;;;;;;684676;28;4290;-69
2024/01/17 01:04:29;;;;;;;11.85;6.95;;;;;;;;;;687585;28;809;-69
2024/01/17 01:04:49;;;;;;;12.30;6.93;;;;;;;;;;686488;28;1465;-69
2024/01/17 01:05:11;;;;;;;13.75;7.00;;;;;;;;;;687251;28;913;-68
2024/01/17 01:05:31;;;;;;;12.50;6.55;;;;;;;;;;686942;28;929;-69
2024/01/17 01:05:51;;;;;;;11.97;6.53;;;;;;;;;;685789;28;2238;-69
2024/01/17 01:06:12;;;;;;;12.50;6.70;;;;;;;;;;687316;28;883;-69
2024/01/17 01:06:32;;;;;;;13.57;7.20;;;;;;;;;;687318;28;1053;-69
2024/01/17 01:06:52;;;;;;;13.63;6.80;;;;;;;;;;685852;28;1977;-70
2024/01/17 01:07:13;;;;;;;11.77;6.70;;;;;;;;;;686727;28;4451;-68
2024/01/17 01:07:33;;;;;;;10.93;6.90;;;;;;;;;;687032;28;901;-69
2024/01/17 01:07:53;;;;;;;11.53;6.97;;;;;;;;;;684855;28;2228;-69
2024/01/17 01:08:14;;;;;;;11.07;7.05;;;;;;;;;;685776;28;849;-68
2024/01/17 01:08:34;;;;;;;12.20;7.23;;;;;;;;;;687017;28;912;-69
2024/01/17 01:08:54;;;;;;;11.53;7.30;;;;;;;;;;685527;28;1556;-69
2024/01/17 01:09:15;;;;;;;10.63;6.73;;;;;;;;;;684875;28;1065;-70
2024/01/17 01:09:35;;;;;;;10.52;6.60;;;;;;;;;;687546;28;886;-69
2024/01/17 01:09:55;;;;;;;9.90;6.50;;;;;;;;;;685711;28;1782;-69
2024/01/17 01:10:16;;;;;;;12.57;6.97;;;;;;;;;;686408;28;4333;-69
2024/01/17 01:10:36;;;;;;;11.75;6.90;;;;;;;;;;686773;28;1268;-69
2024/01/17 01:10:56;;;;;;;12.40;6.93;;;;;;;;;;685987;28;1429;-70
2024/01/17 01:11:16;;;;;;;10.50;6.63;;;;;;;;;;687444;28;877;-69
2024/01/17 01:11:37;;;;;;;12.20;6.57;;;;;;;;;;686666;28;774;-68
2024/01/17 01:11:57;;;;;;;13.30;6.80;;;;;;;;;;686747;28;1685;-69
2024/01/17 01:12:17;;;;;;;13.07;7.20;;;;;;;;;;686444;28;1071;-69
2024/01/17 01:12:37;;;;;;;11.80;6.90;;;;;;;;;;686733;28;817;-69
2024/01/17 01:12:58;;;;;;;13.73;7.00;;;;;;;;;;686532;28;1737;-69
2024/01/17 01:13:18;;;;;;;13.53;7.00;;;;;;;;;;683946;28;4305;-69
2024/01/17 01:13:38;;;;;;;12.20;6.70;;;;;;;;;;684421;28;988;-69
2024/01/17 01:13:59;;;;;;;11.60;6.60;;;;;;;;;;683620;28;1784;-69
2024/01/17 01:14:19;;;;;;;12.10;7.38;;;;;;;;;;684226;28;941;-69
2024/01/17 01:14:39;;;;;;;12.43;6.93;;;;;;;;;;684444;28;758;-69
2024/01/17 01:15:00;;;;;;;12.15;6.78;;;;;;;;;;684071;28;1773;-69
2024/01/17 01:15:20;;;;;;;11.80;7.40;;;;;;;;;;686754;28;897;-69
2024/01/17 01:15:41;;;;;;;12.20;7.60;;;;;;;;;;686630;28;1312;-69
2024/01/17 01:16:03;;;;;;;11.20;7.00;;;;;;;;;;682972;28;4312;-70
2024/01/17 01:16:23;;;;;;;11.68;7.15;;;;;;;;;;683697;28;1311;-69
2024/01/17 01:16:44;;;;;;;10.87;7.10;;;;;;;;;;683687;28;770;-68
2024/01/17 01:17:04;;;;;;;10.20;6.90;;;;;;;;;;683403;28;1890;-68
2024/01/17 01:17:24;;;;;;;10.02;6.65;;;;;;;;;;686581;28;1134;-68
2024/01/17 01:17:45;;;;;;;10.90;6.90;;;;;;;;;;687356;28;920;-68
2024/01/17 01:18:05;;;;;;;10.90;7.00;;;;;;;;;;688771;28;983;-69
2024/01/17 01:18:25;;;;;;;11.98;6.93;;;;;;;;;;692251;28;966;-69
2024/01/17 01:18:45;;;;;;;11.93;6.77;;;;;;;;;;692002;28;936;-69
2024/01/17 01:19:06;;;;;;;11.93;7.10;;;;;;;;;;687186;28;4585;-69
2024/01/17 01:19:26;;;;;;;11.50;6.70;;;;;;;;;;687373;28;904;-69
2024/01/17 01:19:46;;;;;;;11.47;6.67;;;;;;;;;;686018;28;3823;-69
2024/01/17 01:20:07;;;;;;;10.80;6.90;;;;;;;;;;685856;28;1954;-69
2024/01/17 01:20:28;;;;;;;12.05;6.47;;;;;;;;;;686779;28;908;-68
2024/01/17 01:20:48;;;;;;;12.73;6.73;;;;;;;;;;685423;28;1247;-69
2024/01/17 01:21:08;;;;;;;12.23;6.80;;;;;;;;;;686441;28;833;-69
2024/01/17 01:21:28;;;;;;;11.33;7.07;;;;;;;;;;687115;28;793;-69
2024/01/17 01:21:49;;;;;;;10.90;6.50;;;;;;;;;;685647;28;1009;-68
2024/01/17 01:22:09;;;;;;;10.90;6.72;;;;;;;;;;681753;28;4677;-70
2024/01/17 01:22:29;;;;;;;10.90;6.70;;;;;;;;;;681421;29;1441;-67
2024/01/17 01:22:50;;;;;;;10.90;6.73;;;;;;;;;;680055;28;1235;-69
2024/01/17 01:23:10;;;;;;;11.65;6.70;;;;;;;;;;680688;29;865;-68
2024/01/17 01:23:30;;;;;;;11.40;6.90;;;;;;;;;;680897;29;882;-69
2024/01/17 01:23:50;;;;;;;11.83;7.03;;;;;;;;;;680711;28;1294;-69
2024/01/17 01:24:11;;;;;;;11.55;7.18;;;;;;;;;;686122;28;1143;-69
2024/01/17 01:24:31;;;;;;;11.03;6.80;;;;;;;;;;689577;28;757;-68
2024/01/17 01:24:51;;;;;;;12.07;7.20;;;;;;;;;;682336;28;1453;-69
2024/01/17 01:25:11;;;;;;;12.53;7.20;;;;;;;;;;683606;28;4961;-69
2024/01/17 01:25:31;;;;;;;12.07;7.10;;;;;;;;;;684051;28;739;-69
2024/01/17 01:25:52;;;;;;;12.97;7.60;;;;;;;;;;683379;28;1341;-69
2024/01/17 01:26:14;;;;;;;13.05;7.28;;;;;;;;;;683749;28;1387;-69
2024/01/17 01:26:35;;;;;;;11.48;6.97;;;;;;;;;;682196;28;845;-68
2024/01/17 01:26:56;;;;;;;11.18;6.90;;;;;;;;;;682786;28;1984;-69
2024/01/17 01:27:16;;;;;;;11.57;6.72;;;;;;;;;;683846;28;896;-68
2024/01/17 01:27:36;;;;;;;12.50;7.13;;;;;;;;;;684052;28;1287;-69
2024/01/17 01:27:56;;;;;;;11.80;6.87;;;;;;;;;;686053;28;1023;-69
2024/01/17 01:28:17;;;;;;;11.73;6.77;;;;;;;;;;685749;28;4399;-68
2024/01/17 01:28:37;;;;;;;11.47;6.77;;;;;;;;;;683459;28;1552;-69
2024/01/17 01:28:57;;;;;;;13.07;6.90;;;;;;;;;;682890;28;1074;-69
2024/01/17 01:29:17;;;;;;;12.13;6.90;;;;;;;;;;684200;28;1285;-69
2024/01/17 01:29:38;;;;;;;13.77;7.40;;;;;;;;;;684457;28;707;-69
2024/01/17 01:29:58;;;;;;;13.57;7.43;;;;;;;;;;681001;28;1033;-69
2024/01/17 01:30:19;;;;;;;11.97;6.43;;;;;;;;;;684083;28;1368;-68
2024/01/17 01:30:39;;;;;;;11.90;6.47;;;;;;;;;;684292;28;925;-68
2024/01/17 01:30:59;;;;;;;12.20;6.57;;;;;;;;;;682090;28;4546;-68
2024/01/17 01:31:19;;;;;;;11.90;6.60;;;;;;;;;;683701;28;971;-69
2024/01/17 01:31:40;;;;;;;12.03;6.57;;;;;;;;;;683339;28;897;-69
2024/01/17 01:32:00;;;;;;;13.35;6.97;;;;;;;;;;683108;28;1133;-68
2024/01/17 01:32:20;;;;;;;12.13;6.53;;;;;;;;;;687358;28;972;-69
2024/01/17 01:32:40;;;;;;;12.50;6.70;;;;;;;;;;688459;28;1444;-69
2024/01/17 01:33:01;;;;;;;12.95;7.22;;;;;;;;;;688800;28;1090;-69
2024/01/17 01:33:21;;;;;;;11.97;7.20;;;;;;;;;;689709;28;1127;-69
2024/01/17 01:33:41;;;;;;;11.23;6.80;;;;;;;;;;688926;28;998;-68
2024/01/17 01:34:02;;;;;;;12.30;6.90;;;;;;;;;;685735;28;4368;-69
2024/01/17 01:34:22;;;;;;;12.60;7.00;;;;;;;;;;687083;28;952;-69
2024/01/17 01:34:43;;;;;;;12.93;6.85;;;;;;;;;;685822;28;932;-69
2024/01/17 01:35:03;;;;;;;12.50;6.63;;;;;;;;;;686542;28;940;-69
2024/01/17 01:35:24;;;;;;;12.00;6.53;;;;;;;;;;687195;28;1196;-69
2024/01/17 01:35:45;;;;;;;13.98;7.22;;;;;;;;;;686613;28;801;-69
2024/01/17 01:36:05;;;;;;;14.15;7.10;;;;;;;;;;685949;28;1053;-69
2024/01/17 01:36:26;;;;;;;12.17;7.20;;;;;;;;;;688836;28;746;-68
2024/01/17 01:36:46;;;;;;;9.73;6.78;;;;;;;;;;684288;28;1180;-69
2024/01/17 01:37:07;;;;;;;9.90;6.82;;;;;;;;;;683887;28;4339;-69
2024/01/17 01:37:27;;;;;;;13.07;7.10;;;;;;;;;;682705;28;1299;-69
2024/01/17 01:37:47;;;;;;;14.20;7.13;;;;;;;;;;682539;28;918;-69
2024/01/17 01:38:07;;;;;;;12.83;7.20;;;;;;;;;;681822;28;1117;-69
2024/01/17 01:38:28;;;;;;;11.00;7.10;;;;;;;;;;684502;28;881;-68
2024/01/17 01:38:48;;;;;;;10.97;7.47;;;;;;;;;;686178;28;1091;-68
2024/01/17 01:39:08;;;;;;;11.80;7.30;;;;;;;;;;687203;28;812;-69
2024/01/17 01:39:29;;;;;;;12.50;6.83;;;;;;;;;;686951;28;1229;-69
2024/01/17 01:39:49;;;;;;;10.77;6.83;;;;;;;;;;684848;28;966;-67
2024/01/17 01:40:09;;;;;;;10.90;6.78;;;;;;;;;;685539;28;4350;-70
2024/01/17 01:40:29;;;;;;;12.67;7.10;;;;;;;;;;687056;28;823;-69
2024/01/17 01:40:50;;;;;;;13.52;7.43;;;;;;;;;;686474;28;969;-68
2024/01/17 01:41:10;;;;;;;11.67;6.97;;;;;;;;;;687052;28;1015;-67
2024/01/17 01:41:30;;;;;;;13.37;7.20;;;;;;;;;;687061;28;1111;-69
2024/01/17 01:41:50;;;;;;;12.73;7.00;;;;;;;;;;686556;28;954;-69
2024/01/17 01:42:11;;;;;;;12.07;7.20;;;;;;;;;;686676;28;6282;-69
2024/01/17 01:42:31;;;;;;;12.20;7.33;;;;;;;;;;684319;28;901;-68
2024/01/17 01:42:53;;;;;;;11.93;7.10;;;;;;;;;;683207;28;1020;-68
2024/01/17 01:43:16;;;;;;;12.35;6.57;;;;;;;;;;683686;28;5225;-69
2024/01/17 01:43:36;;;;;;;13.13;7.07;;;;;;;;;;684250;28;1003;-69
2024/01/17 01:43:57;;;;;;;14.33;7.10;;;;;;;;;;681241;28;1019;-70
2024/01/17 01:44:17;;;;;;;12.77;6.75;;;;;;;;;;684691;28;952;-68
2024/01/17 01:44:37;;;;;;;13.63;6.90;;;;;;;;;;687327;28;1463;-69
2024/01/17 01:44:57;;;;;;;11.33;6.83;;;;;;;;;;686084;28;952;-69
2024/01/17 01:45:18;;;;;;;10.95;6.68;;;;;;;;;;686842;28;893;-69
2024/01/17 01:45:38;;;;;;;11.13;7.30;;;;;;;;;;686542;28;1292;-69
2024/01/17 01:46:09;;;;;;;10.43;7.13;;;;;;;;;;688318;28;4367;-69
2024/01/17 01:46:29;;;;;;;10.00;6.68;;;;;;;;;;689342;28;739;-69
2024/01/17 01:46:49;;;;;;;11.45;7.10;;;;;;;;;;688806;28;1006;-69
2024/01/17 01:47:10;;;;;;;11.40;6.97;;;;;;;;;;689731;28;773;-68
2024/01/17 01:47:30;;;;;;;11.95;7.15;;;;;;;;;;687545;28;841;-67
2024/01/17 01:47:51;;;;;;;11.47;6.97;;;;;;;;;;683050;28;1229;-69
2024/01/17 01:48:11;;;;;;;12.47;6.87;;;;;;;;;;684433;28;916;-69
2024/01/17 01:48:33;;;;;;;11.87;6.90;;;;;;;;;;683690;28;1107;-67
2024/01/17 01:48:53;;;;;;;14.20;7.15;;;;;;;;;;683553;28;1072;-68
2024/01/17 01:49:14;;;;;;;12.93;6.73;;;;;;;;;;682081;28;4282;-68
2024/01/17 01:49:35;;;;;;;12.63;7.03;;;;;;;;;;678294;28;1546;-69
2024/01/17 01:49:56;;;;;;;12.48;7.20;;;;;;;;;;682277;28;1099;-68
2024/01/17 01:50:16;;;;;;;12.77;7.23;;;;;;;;;;684264;28;3662;-70
2024/01/17 01:50:36;;;;;;;11.38;6.82;;;;;;;;;;684287;28;877;-69
2024/01/17 01:50:57;;;;;;;13.33;7.30;;;;;;;;;;683614;28;1051;-68
2024/01/17 01:51:19;;;;;;;11.93;7.15;;;;;;;;;;684462;28;802;-68
2024/01/17 01:51:39;;;;;;;12.77;6.97;;;;;;;;;;684322;28;1242;-69
2024/01/17 01:51:59;;;;;;;13.13;6.90;;;;;;;;;;683105;28;5038;-69
2024/01/17 01:52:20;;;;;;;11.77;7.13;;;;;;;;;;687157;28;757;-68
2024/01/17 01:52:42;;;;;;;11.48;7.18;;;;;;;;;;686696;28;787;-69
2024/01/17 01:53:03;;;;;;;13.70;7.18;;;;;;;;;;684399;28;990;-67
2024/01/17 01:53:24;;;;;;;14.13;7.35;;;;;;;;;;683709;28;965;-68
2024/01/17 01:53:47;;;;;;;11.13;7.20;;;;;;;;;;684083;28;904;-69
2024/01/17 01:54:07;;;;;;;13.05;7.32;;;;;;;;;;683356;28;1019;-69
2024/01/17 01:54:28;;;;;;;12.20;7.30;;;;;;;;;;685385;28;786;-70
2024/01/17 01:54:48;;;;;;;11.90;7.43;;;;;;;;;;686777;28;986;-66
2024/01/17 01:55:09;;;;;;;11.02;6.93;;;;;;;;;;684150;28;4366;-69
2024/01/17 01:55:30;;;;;;;12.48;7.10;;;;;;;;;;687434;28;845;-69
2024/01/17 01:55:52;;;;;;;12.32;7.20;;;;;;;;;;685973;28;1106;-67
2024/01/17 01:56:14;;;;;;;11.73;7.50;;;;;;;;;;686857;28;845;-68
2024/01/17 01:56:36;;;;;;;13.13;7.10;;;;;;;;;;687130;28;944;-68
2024/01/17 01:56:59;;;;;;;11.43;6.90;;;;;;;;;;685832;28;1661;-69
2024/01/17 01:57:19;;;;;;;10.73;7.00;;;;;;;;;;687367;28;977;-66
2024/01/17 01:57:46;;;;;;;11.97;7.20;;;;;;;;;;687609;28;861;-68
2024/01/17 01:58:07;;;;;;;12.15;7.30;;;;;;;;;;685044;28;4411;-67
2024/01/17 01:58:28;;;;;;;11.80;6.97;;;;;;;;;;686827;28;1280;-68
2024/01/17 01:58:48;;;;;;;12.80;7.35;;;;;;;;;;686701;28;861;-67
2024/01/17 01:59:10;;;;;;;12.80;7.10;;;;;;;;;;688782;28;1164;-69
2024/01/17 01:59:30;;;;;;;12.75;6.80;;;;;;;;;;688363;28;916;-70
2024/01/17 01:59:50;;;;;;;12.27;6.90;;;;;;;;;;688242;28;919;-68
2024/01/17 02:00:12;;;;;;;11.60;6.83;;;;;;;;;;690077;28;1047;-69
2024/01/17 02:00:36;;;;;;;11.88;7.07;;;;;;;;;;692416;28;1023;-68
2024/01/17 02:00:56;;;;;;;11.30;7.13;;;;;;;;;;690168;28;1006;-69
2024/01/17 02:01:17;;;;;;;13.33;7.80;;;;;;;;;;688483;28;4450;-68
2024/01/17 02:01:38;;;;;;;13.18;7.45;;;;;;;;;;687682;28;869;-68
2024/01/17 02:01:58;;;;;;;12.40;7.50;;;;;;;;;;686103;28;1289;-67
2024/01/17 02:02:19;;;;;;;12.77;7.47;;;;;;;;;;686672;28;829;-66
2024/01/17 02:02:39;;;;;;;12.07;7.00;;;;;;;;;;684434;28;1178;-68
2024/01/17 02:02:59;;;;;;;12.40;7.13;;;;;;;;;;683338;28;954;-68
2024/01/17 02:03:21;;;;;;;12.33;7.40;;;;;;;;;;684402;28;1299;-68
2024/01/17 02:03:43;;;;;;;11.40;7.30;;;;;;;;;;684024;28;1194;-68
2024/01/17 02:04:03;;;;;;;12.75;7.03;;;;;;;;;;682359;28;4532;-67
2024/01/17 02:04:25;;;;;;;12.45;6.85;;;;;;;;;;683250;28;908;-68
2024/01/17 02:04:45;;;;;;;12.32;7.32;;;;;;;;;;684592;28;794;-68
2024/01/17 02:05:07;;;;;;;13.90;7.38;;;;;;;;;;683639;28;1155;-67
2024/01/17 02:05:27;;;;;;;12.80;7.10;;;;;;;;;;686899;28;1056;-68
2024/01/17 02:05:47;;;;;;;11.95;7.50;;;;;;;;;;687270;28;1169;-69
2024/01/17 02:06:08;;;;;;;12.17;7.13;;;;;;;;;;686249;28;949;-67
2024/01/17 02:06:33;;;;;;;13.27;7.88;;;;;;;;;;686869;28;996;-68